DEKT2: Red River, Dekalb, TX

                                SHEF ID:       DEKT2     Red River near De Kalb, TX
STATION TYPE: Stream Gauge
Regulating: Stage = 23.70, Flow = 62933

PRECIP STAGE STAGE(2) RIV-FLOW BAT-LOAD
in ft ft cfs volt
Ccp-Rev Ccp-Rev Ccp-Rev Ccp-Rev Ccp-Rev
(America/Chicago)
02/20 00:00 0.00 10.71 ---- 5934 12.57
02/20 01:00 0.00 10.68 ---- 5879 12.57
02/20 02:00 0.00 10.65 ---- 5825 12.57
02/20 03:00 0.00 10.62 ---- 5770 12.57
02/20 04:00 0.00 10.58 ---- 5698 12.57
02/20 05:00 0.00 10.55 ---- 5644 12.49
02/20 06:00 0.00 10.53 ---- 5608 12.49
02/20 07:00 0.00 10.49 ---- 5537 12.49
02/20 08:00 0.00 10.47 ---- 5501 12.49
02/20 09:00 0.00 10.44 ---- 5448 13.29
02/20 10:00 0.00 10.41 ---- 5395 13.21
02/20 11:00 0.00 10.37 ---- 5325 13.21
02/20 12:00 0.00 10.34 ---- 5272 13.29
02/20 13:00 0.00 10.30 ---- 5202 13.21
02/20 14:00 0.00 10.25 ---- 5116 13.21
02/20 15:00 0.00 10.20 ---- 5030 13.21
02/20 16:00 0.00 10.14 ---- 4927 13.21
02/20 17:00 0.00 10.16 ---- 4961 12.97
02/20 18:00 0.00 10.12 ---- 4893 12.73
02/20 19:00 0.00 10.11 ---- 4876 12.65
02/20 20:00 0.00 10.09 ---- 4842 12.65
02/20 21:00 0.00 10.05 ---- 4774 12.65
02/20 22:00 0.00 10.02 ---- 4724 12.65
02/20 23:00 0.00 10.00 ---- 4691 12.65
Data processed at Sat 21Feb2026 05:30 GMT

NOTICE: If you are parsing this page

Please convert to using our Data API. Starting early 2026 we will be migrating to: https://water.usace.army.mil with modern pages rendered in JavaScript. When this migration completes you will no longer be able to scrape this page! CWMSDataAPI (CDA)

Timeseries IDs (TSIDs)

TSIDs used from left to right in the data table
DEKA.Precip-Inc.Total.1Hour.1Hour.Ccp-Rev
DEKA.Stage.Inst.1Hour.0.Ccp-Rev
DEKA.Stage-Alt.Inst.1Hour.0.Ccp-Rev
DEKA.Flow.Inst.1Hour.0.Ccp-Rev
DEKA.Volt-Battery Load.Inst.1Hour.0.Ccp-Rev

                            

All information presented herein is the property of the government of the United States of America and may be revised or deleted at any time without prior notice. Dissemination of this information without the expressed written consent of the Public Affairs Office, Tulsa District U.S. Army Corps of Engineers is strictly prohibited. These data are gathered electronically and, as presented, have NOT undergone any form of quality control. These data are NOT guaranteed to be valid or correct.